Francisco Bangoy International Airport
RPMD : now visible

Airfield :











YOU CAN JOIN US ON...

 
LOGIN :

Register | Disclaimer

   EN    FR    IT 

 









Legend :    VFR   Marginal VFR   IFR   Intensive IFR   Very Intensive IFR
Visi :
Ceiling :
>= 8 km
>= 3000ft
5 to 8 km
1000 to 3000 ft
1500m to 5 km
500 to 1000 ft
800 to 1500m
200 to 500 ft
< 800m
< 200 ft
Symbols :   Thunderstorms  Fog  Heavy snow  Heavy precipitations  Wind > 20 kt







- Airport Elevation : 96 ft
- IATA code : DVO


RPMD - Francisco Bangoy International

CURRENT METAR :
  • 261200Z 00000KT 9999 SCT016 SCT090 BKN290 29/25 Q1010 RMK A2983

EXPIRED METARs :
  • 261100Z 18007KT 9999 FEW016 SCT090 29/25 Q1009 RMK A2980
  • 261000Z 18008KT 9999 FEW016 BKN290 29/25 Q1008 RMK A2977

TAF TAF RPMD
Valid from the 26 at 12:00 until the 27 at 12:00 UTC


261100Z 2612/2712 18006KT 9999 FEW016 SCT090 BKN290
TEMPO 2612/2618 VRB03KT -TSRA SCT015CB BKN090 BKN290
RPHI FIR / Asia



MET'MAP, your aeronautical weather chart ! - Copyright ORBIFLY December 2007 - Disclaimer

ORBIFLY MET'MAP TEAM :

Programming & Development : Alexandra Zaïnal
Concept & Development : Baudouin d'Aumeries
Co-Development & Prog : Marc-Olivier Méhu
Technical & hardware support : Manuel Goepfert

Contact : metmap@orbifly.com




SOURCES & CREDITS :

   NOAA       Earth
Advisory